sensor_id;sensor_type;location;lat;lon;timestamp;P1;durP1;ratioP1;P2;durP2;ratioP2
56997;SDS011;42890;44.244;22.530;2024-03-02T00:00:08;44.03;;;39.28;;
56997;SDS011;42890;44.244;22.530;2024-03-02T00:02:43;45.17;;;40.47;;
56997;SDS011;42890;44.244;22.530;2024-03-02T00:05:13;43.25;;;38.72;;
56997;SDS011;42890;44.244;22.530;2024-03-02T00:07:42;46.63;;;41.92;;
56997;SDS011;42890;44.244;22.530;2024-03-02T00:10:09;48.22;;;43.33;;
56997;SDS011;42890;44.244;22.530;2024-03-02T00:12:37;47.47;;;42.35;;
56997;SDS011;42890;44.244;22.530;2024-03-02T00:17:53;50.42;;;45.15;;
56997;SDS011;42890;44.244;22.530;2024-03-02T00:20:22;51.08;;;45.72;;
56997;SDS011;42890;44.244;22.530;2024-03-02T00:22:49;54.67;;;48.80;;
56997;SDS011;42890;44.244;22.530;2024-03-02T00:25:16;52.72;;;47.10;;
56997;SDS011;42890;44.244;22.530;2024-03-02T00:27:47;54.28;;;48.35;;
56997;SDS011;42890;44.244;22.530;2024-03-02T00:32:59;63.65;;;51.50;;
56997;SDS011;42890;44.244;22.530;2024-03-02T00:35:25;56.78;;;48.05;;
56997;SDS011;42890;44.244;22.530;2024-03-02T00:37:58;58.15;;;49.53;;
56997;SDS011;42890;44.244;22.530;2024-03-02T00:40:26;55.15;;;49.28;;
56997;SDS011;42890;44.244;22.530;2024-03-02T00:42:55;56.85;;;49.25;;
56997;SDS011;42890;44.244;22.530;2024-03-02T00:45:21;61.40;;;49.53;;
56997;SDS011;42890;44.244;22.530;2024-03-02T00:47:49;57.15;;;50.53;;
56997;SDS011;42890;44.244;22.530;2024-03-02T00:50:16;55.38;;;49.45;;
56997;SDS011;42890;44.244;22.530;2024-03-02T00:52:42;53.50;;;47.75;;
56997;SDS011;42890;44.244;22.530;2024-03-02T00:55:08;57.55;;;49.60;;
56997;SDS011;42890;44.244;22.530;2024-03-02T00:57:36;53.75;;;47.92;;
56997;SDS011;42890;44.244;22.530;2024-03-02T01:00:02;55.88;;;48.67;;
56997;SDS011;42890;44.244;22.530;2024-03-02T01:02:33;53.20;;;47.45;;
56997;SDS011;42890;44.244;22.530;2024-03-02T01:04:59;54.17;;;48.20;;
56997;SDS011;42890;44.244;22.530;2024-03-02T01:07:25;56.08;;;49.53;;
56997;SDS011;42890;44.244;22.530;2024-03-02T01:09:52;53.42;;;47.67;;
56997;SDS011;42890;44.244;22.530;2024-03-02T01:12:18;58.28;;;49.42;;
56997;SDS011;42890;44.244;22.530;2024-03-02T01:14:44;56.25;;;49.10;;
56997;SDS011;42890;44.244;22.530;2024-03-02T01:17:10;63.25;;;49.10;;
56997;SDS011;42890;44.244;22.530;2024-03-02T01:19:36;55.00;;;48.30;;
56997;SDS011;42890;44.244;22.530;2024-03-02T01:22:03;52.85;;;46.95;;
56997;SDS011;42890;44.244;22.530;2024-03-02T01:24:29;54.17;;;48.45;;
56997;SDS011;42890;44.244;22.530;2024-03-02T01:26:55;55.42;;;48.55;;
56997;SDS011;42890;44.244;22.530;2024-03-02T01:29:22;56.83;;;50.08;;
56997;SDS011;42890;44.244;22.530;2024-03-02T01:31:48;54.90;;;48.90;;
56997;SDS011;42890;44.244;22.530;2024-03-02T01:34:16;54.80;;;47.92;;
56997;SDS011;42890;44.244;22.530;2024-03-02T01:36:42;55.95;;;47.92;;
56997;SDS011;42890;44.244;22.530;2024-03-02T01:39:08;54.53;;;46.53;;
56997;SDS011;42890;44.244;22.530;2024-03-02T01:41:35;53.50;;;47.47;;
56997;SDS011;42890;44.244;22.530;2024-03-02T01:44:01;61.40;;;49.58;;
56997;SDS011;42890;44.244;22.530;2024-03-02T01:46:27;52.53;;;46.83;;
56997;SDS011;42890;44.244;22.530;2024-03-02T01:48:54;52.10;;;46.63;;
56997;SDS011;42890;44.244;22.530;2024-03-02T01:51:20;53.75;;;45.95;;
56997;SDS011;42890;44.244;22.530;2024-03-02T01:53:46;54.80;;;46.58;;
56997;SDS011;42890;44.244;22.530;2024-03-02T01:56:12;48.95;;;43.72;;
56997;SDS011;42890;44.244;22.530;2024-03-02T01:58:39;56.35;;;44.17;;
56997;SDS011;42890;44.244;22.530;2024-03-02T02:01:05;49.67;;;44.08;;
56997;SDS011;42890;44.244;22.530;2024-03-02T02:03:31;51.55;;;43.90;;
56997;SDS011;42890;44.244;22.530;2024-03-02T02:05:57;53.22;;;44.05;;
56997;SDS011;42890;44.244;22.530;2024-03-02T02:08:24;55.35;;;43.13;;
56997;SDS011;42890;44.244;22.530;2024-03-02T02:10:53;52.47;;;43.35;;
56997;SDS011;42890;44.244;22.530;2024-03-02T02:13:19;54.15;;;45.25;;
56997;SDS011;42890;44.244;22.530;2024-03-02T02:15:45;54.20;;;44.63;;
56997;SDS011;42890;44.244;22.530;2024-03-02T02:18:11;49.80;;;44.03;;
56997;SDS011;42890;44.244;22.530;2024-03-02T02:20:37;50.83;;;44.50;;
56997;SDS011;42890;44.244;22.530;2024-03-02T02:23:04;50.60;;;44.88;;
56997;SDS011;42890;44.244;22.530;2024-03-02T02:25:31;47.10;;;42.05;;
56997;SDS011;42890;44.244;22.530;2024-03-02T02:27:57;50.15;;;44.67;;
56997;SDS011;42890;44.244;22.530;2024-03-02T02:30:27;53.05;;;47.22;;
56997;SDS011;42890;44.244;22.530;2024-03-02T02:32:53;55.28;;;49.28;;
56997;SDS011;42890;44.244;22.530;2024-03-02T02:35:20;60.90;;;51.70;;
56997;SDS011;42890;44.244;22.530;2024-03-02T02:37:47;54.92;;;47.97;;
56997;SDS011;42890;44.244;22.530;2024-03-02T02:40:13;50.33;;;44.38;;
56997;SDS011;42890;44.244;22.530;2024-03-02T02:42:39;49.40;;;44.05;;
56997;SDS011;42890;44.244;22.530;2024-03-02T02:45:06;53.35;;;47.58;;
56997;SDS011;42890;44.244;22.530;2024-03-02T02:47:32;56.72;;;48.10;;
56997;SDS011;42890;44.244;22.530;2024-03-02T02:50:02;50.42;;;45.22;;
56997;SDS011;42890;44.244;22.530;2024-03-02T02:52:32;50.13;;;43.28;;
56997;SDS011;42890;44.244;22.530;2024-03-02T02:54:59;50.45;;;42.20;;
56997;SDS011;42890;44.244;22.530;2024-03-02T02:57:25;48.38;;;43.13;;
56997;SDS011;42890;44.244;22.530;2024-03-02T02:59:51;44.80;;;40.13;;
56997;SDS011;42890;44.244;22.530;2024-03-02T03:02:17;44.67;;;39.70;;
56997;SDS011;42890;44.244;22.530;2024-03-02T03:04:44;46.47;;;41.17;;
56997;SDS011;42890;44.244;22.530;2024-03-02T03:07:10;46.80;;;41.45;;
56997;SDS011;42890;44.244;22.530;2024-03-02T03:09:37;46.75;;;41.67;;
56997;SDS011;42890;44.244;22.530;2024-03-02T03:12:06;44.90;;;40.10;;
56997;SDS011;42890;44.244;22.530;2024-03-02T03:14:32;45.70;;;38.45;;
56997;SDS011;42890;44.244;22.530;2024-03-02T03:16:58;46.83;;;39.75;;
56997;SDS011;42890;44.244;22.530;2024-03-02T03:19:25;45.80;;;39.33;;
56997;SDS011;42890;44.244;22.530;2024-03-02T03:21:51;45.65;;;38.90;;
56997;SDS011;42890;44.244;22.530;2024-03-02T03:24:17;41.50;;;37.00;;
56997;SDS011;42890;44.244;22.530;2024-03-02T03:26:43;43.75;;;37.83;;
56997;SDS011;42890;44.244;22.530;2024-03-02T03:29:09;38.95;;;34.85;;
56997;SDS011;42890;44.244;22.530;2024-03-02T03:31:35;45.47;;;36.13;;
56997;SDS011;42890;44.244;22.530;2024-03-02T03:34:02;46.55;;;33.92;;
56997;SDS011;42890;44.244;22.530;2024-03-02T03:36:28;36.35;;;32.50;;
56997;SDS011;42890;44.244;22.530;2024-03-02T03:38:54;37.53;;;33.53;;
56997;SDS011;42890;44.244;22.530;2024-03-02T03:41:20;37.60;;;33.45;;
56997;SDS011;42890;44.244;22.530;2024-03-02T03:43:46;37.22;;;32.72;;
56997;SDS011;42890;44.244;22.530;2024-03-02T03:46:15;39.97;;;32.60;;
56997;SDS011;42890;44.244;22.530;2024-03-02T03:48:41;39.47;;;33.13;;
56997;SDS011;42890;44.244;22.530;2024-03-02T03:51:07;36.60;;;32.35;;
56997;SDS011;42890;44.244;22.530;2024-03-02T03:53:34;36.05;;;32.10;;
56997;SDS011;42890;44.244;22.530;2024-03-02T03:56:00;35.05;;;31.35;;
56997;SDS011;42890;44.244;22.530;2024-03-02T03:58:26;39.90;;;32.92;;
56997;SDS011;42890;44.244;22.530;2024-03-02T04:00:52;35.88;;;32.10;;
56997;SDS011;42890;44.244;22.530;2024-03-02T04:03:18;38.50;;;33.40;;
56997;SDS011;42890;44.244;22.530;2024-03-02T04:05:44;38.80;;;34.60;;
56997;SDS011;42890;44.244;22.530;2024-03-02T04:08:10;37.20;;;33.47;;
56997;SDS011;42890;44.244;22.530;2024-03-02T04:10:37;38.58;;;33.70;;
56997;SDS011;42890;44.244;22.530;2024-03-02T04:13:03;42.92;;;37.03;;
56997;SDS011;42890;44.244;22.530;2024-03-02T04:15:29;38.88;;;33.88;;
56997;SDS011;42890;44.244;22.530;2024-03-02T04:17:55;36.83;;;32.55;;
56997;SDS011;42890;44.244;22.530;2024-03-02T04:20:21;35.67;;;31.90;;
56997;SDS011;42890;44.244;22.530;2024-03-02T04:22:47;34.22;;;30.05;;
56997;SDS011;42890;44.244;22.530;2024-03-02T04:25:13;34.53;;;29.63;;
56997;SDS011;42890;44.244;22.530;2024-03-02T04:27:40;33.10;;;29.20;;
56997;SDS011;42890;44.244;22.530;2024-03-02T04:30:09;36.22;;;28.23;;
56997;SDS011;42890;44.244;22.530;2024-03-02T04:32:36;33.58;;;28.45;;
56997;SDS011;42890;44.244;22.530;2024-03-02T04:35:02;33.00;;;28.60;;
56997;SDS011;42890;44.244;22.530;2024-03-02T04:37:29;33.45;;;27.88;;
56997;SDS011;42890;44.244;22.530;2024-03-02T04:39:56;31.80;;;27.15;;
56997;SDS011;42890;44.244;22.530;2024-03-02T04:42:22;31.33;;;26.27;;
56997;SDS011;42890;44.244;22.530;2024-03-02T04:44:48;28.80;;;24.05;;
56997;SDS011;42890;44.244;22.530;2024-03-02T04:47:14;31.25;;;24.10;;
56997;SDS011;42890;44.244;22.530;2024-03-02T04:49:40;29.35;;;24.88;;
56997;SDS011;42890;44.244;22.530;2024-03-02T04:52:07;30.92;;;27.67;;
56997;SDS011;42890;44.244;22.530;2024-03-02T04:54:33;29.95;;;25.38;;
56997;SDS011;42890;44.244;22.530;2024-03-02T04:57:19;30.60;;;27.30;;
56997;SDS011;42890;44.244;22.530;2024-03-02T04:59:45;31.55;;;25.92;;
56997;SDS011;42890;44.244;22.530;2024-03-02T05:02:11;48.28;;;34.60;;
56997;SDS011;42890;44.244;22.530;2024-03-02T05:04:39;30.10;;;24.58;;
56997;SDS011;42890;44.244;22.530;2024-03-02T05:07:05;28.48;;;22.92;;
56997;SDS011;42890;44.244;22.530;2024-03-02T05:09:31;30.50;;;23.95;;
56997;SDS011;42890;44.244;22.530;2024-03-02T05:11:57;30.35;;;24.13;;
56997;SDS011;42890;44.244;22.530;2024-03-02T05:14:42;23.60;;;20.48;;
56997;SDS011;42890;44.244;22.530;2024-03-02T05:17:08;26.98;;;21.35;;
56997;SDS011;42890;44.244;22.530;2024-03-02T05:19:34;29.63;;;22.33;;
56997;SDS011;42890;44.244;22.530;2024-03-02T05:22:01;31.25;;;21.52;;
56997;SDS011;42890;44.244;22.530;2024-03-02T05:24:28;23.20;;;20.48;;
56997;SDS011;42890;44.244;22.530;2024-03-02T05:26:54;25.88;;;20.92;;
56997;SDS011;42890;44.244;22.530;2024-03-02T05:29:20;25.95;;;21.52;;
56997;SDS011;42890;44.244;22.530;2024-03-02T05:31:47;27.13;;;22.13;;
56997;SDS011;42890;44.244;22.530;2024-03-02T05:34:13;29.27;;;22.25;;
56997;SDS011;42890;44.244;22.530;2024-03-02T05:36:39;25.42;;;21.48;;
56997;SDS011;42890;44.244;22.530;2024-03-02T05:39:05;25.23;;;21.90;;
56997;SDS011;42890;44.244;22.530;2024-03-02T05:41:34;32.92;;;26.08;;
56997;SDS011;42890;44.244;22.530;2024-03-02T05:44:00;33.45;;;29.00;;
56997;SDS011;42890;44.244;22.530;2024-03-02T05:46:27;33.25;;;26.48;;
56997;SDS011;42890;44.244;22.530;2024-03-02T05:48:53;35.08;;;28.58;;
56997;SDS011;42890;44.244;22.530;2024-03-02T05:51:19;34.83;;;29.13;;
56997;SDS011;42890;44.244;22.530;2024-03-02T05:53:45;34.65;;;29.52;;
56997;SDS011;42890;44.244;22.530;2024-03-02T05:56:12;36.42;;;29.33;;
56997;SDS011;42890;44.244;22.530;2024-03-02T05:58:38;32.35;;;27.98;;
56997;SDS011;42890;44.244;22.530;2024-03-02T06:01:32;33.83;;;27.17;;
56997;SDS011;42890;44.244;22.530;2024-03-02T06:03:59;30.08;;;26.50;;
56997;SDS011;42890;44.244;22.530;2024-03-02T06:06:25;30.63;;;26.55;;
56997;SDS011;42890;44.244;22.530;2024-03-02T06:08:51;32.58;;;29.25;;
56997;SDS011;42890;44.244;22.530;2024-03-02T06:11:21;35.53;;;29.38;;
56997;SDS011;42890;44.244;22.530;2024-03-02T06:13:47;34.75;;;30.55;;
56997;SDS011;42890;44.244;22.530;2024-03-02T06:16:13;37.63;;;31.13;;
56997;SDS011;42890;44.244;22.530;2024-03-02T06:18:39;35.38;;;29.48;;
56997;SDS011;42890;44.244;22.530;2024-03-02T06:21:06;29.90;;;26.85;;
56997;SDS011;42890;44.244;22.530;2024-03-02T06:23:32;28.77;;;25.83;;
56997;SDS011;42890;44.244;22.530;2024-03-02T06:25:58;35.63;;;27.75;;
56997;SDS011;42890;44.244;22.530;2024-03-02T06:28:24;27.88;;;25.05;;
56997;SDS011;42890;44.244;22.530;2024-03-02T06:30:50;32.17;;;27.20;;
56997;SDS011;42890;44.244;22.530;2024-03-02T06:33:16;35.97;;;26.75;;
56997;SDS011;42890;44.244;22.530;2024-03-02T06:35:43;30.55;;;27.35;;
56997;SDS011;42890;44.244;22.530;2024-03-02T06:38:09;34.95;;;29.02;;
56997;SDS011;42890;44.244;22.530;2024-03-02T06:40:35;32.95;;;29.08;;
56997;SDS011;42890;44.244;22.530;2024-03-02T06:43:03;45.95;;;32.72;;
56997;SDS011;42890;44.244;22.530;2024-03-02T06:45:29;38.75;;;31.27;;
56997;SDS011;42890;44.244;22.530;2024-03-02T06:47:56;31.92;;;28.63;;
56997;SDS011;42890;44.244;22.530;2024-03-02T06:50:22;32.58;;;27.10;;
56997;SDS011;42890;44.244;22.530;2024-03-02T06:52:48;29.20;;;26.20;;
56997;SDS011;42890;44.244;22.530;2024-03-02T06:55:14;32.38;;;25.88;;
56997;SDS011;42890;44.244;22.530;2024-03-02T06:57:40;29.60;;;26.30;;
56997;SDS011;42890;44.244;22.530;2024-03-02T07:00:06;26.23;;;23.30;;
56997;SDS011;42890;44.244;22.530;2024-03-02T07:02:34;28.40;;;23.52;;
56997;SDS011;42890;44.244;22.530;2024-03-02T07:05:01;29.30;;;23.00;;
56997;SDS011;42890;44.244;22.530;2024-03-02T07:07:27;24.83;;;21.92;;
56997;SDS011;42890;44.244;22.530;2024-03-02T07:09:53;30.45;;;23.52;;
56997;SDS011;42890;44.244;22.530;2024-03-02T07:12:19;24.85;;;21.60;;
56997;SDS011;42890;44.244;22.530;2024-03-02T07:14:45;25.75;;;21.90;;
56997;SDS011;42890;44.244;22.530;2024-03-02T07:17:30;23.00;;;20.50;;
56997;SDS011;42890;44.244;22.530;2024-03-02T07:19:57;23.92;;;19.88;;
56997;SDS011;42890;44.244;22.530;2024-03-02T07:22:23;22.60;;;19.70;;
56997;SDS011;42890;44.244;22.530;2024-03-02T07:24:49;21.90;;;19.75;;
56997;SDS011;42890;44.244;22.530;2024-03-02T07:27:16;24.35;;;20.65;;
56997;SDS011;42890;44.244;22.530;2024-03-02T07:29:43;27.42;;;20.52;;
56997;SDS011;42890;44.244;22.530;2024-03-02T07:32:09;21.00;;;18.48;;
56997;SDS011;42890;44.244;22.530;2024-03-02T07:34:36;21.35;;;18.42;;
56997;SDS011;42890;44.244;22.530;2024-03-02T07:37:05;22.30;;;17.77;;
56997;SDS011;42890;44.244;22.530;2024-03-02T07:39:31;22.58;;;19.25;;
56997;SDS011;42890;44.244;22.530;2024-03-02T07:41:57;28.80;;;20.17;;
56997;SDS011;42890;44.244;22.530;2024-03-02T07:44:24;24.27;;;19.83;;
56997;SDS011;42890;44.244;22.530;2024-03-02T07:46:50;25.98;;;20.30;;
56997;SDS011;42890;44.244;22.530;2024-03-02T07:49:16;23.30;;;19.08;;
56997;SDS011;42890;44.244;22.530;2024-03-02T07:51:42;24.25;;;21.02;;
56997;SDS011;42890;44.244;22.530;2024-03-02T07:54:08;24.70;;;21.67;;
56997;SDS011;42890;44.244;22.530;2024-03-02T07:56:35;29.83;;;22.65;;
56997;SDS011;42890;44.244;22.530;2024-03-02T07:59:01;27.70;;;22.83;;
56997;SDS011;42890;44.244;22.530;2024-03-02T08:01:31;24.50;;;21.05;;
56997;SDS011;42890;44.244;22.530;2024-03-02T08:04:00;23.88;;;20.85;;
56997;SDS011;42890;44.244;22.530;2024-03-02T08:06:29;28.45;;;24.02;;
56997;SDS011;42890;44.244;22.530;2024-03-02T08:08:55;27.13;;;23.27;;
56997;SDS011;42890;44.244;22.530;2024-03-02T08:11:22;24.55;;;20.90;;
56997;SDS011;42890;44.244;22.530;2024-03-02T08:13:48;24.90;;;21.25;;
56997;SDS011;42890;44.244;22.530;2024-03-02T08:16:15;27.58;;;22.55;;
56997;SDS011;42890;44.244;22.530;2024-03-02T08:18:45;24.65;;;22.02;;
56997;SDS011;42890;44.244;22.530;2024-03-02T08:21:11;24.60;;;21.88;;
56997;SDS011;42890;44.244;22.530;2024-03-02T08:23:38;24.25;;;20.55;;
56997;SDS011;42890;44.244;22.530;2024-03-02T08:26:06;26.83;;;23.13;;
56997;SDS011;42890;44.244;22.530;2024-03-02T08:28:35;25.38;;;22.67;;
56997;SDS011;42890;44.244;22.530;2024-03-02T08:31:07;31.00;;;22.65;;
56997;SDS011;42890;44.244;22.530;2024-03-02T08:33:34;20.85;;;17.92;;
56997;SDS011;42890;44.244;22.530;2024-03-02T08:36:00;25.83;;;19.60;;
56997;SDS011;42890;44.244;22.530;2024-03-02T08:38:27;24.23;;;21.65;;
56997;SDS011;42890;44.244;22.530;2024-03-02T08:40:54;26.42;;;22.88;;
56997;SDS011;42890;44.244;22.530;2024-03-02T08:43:20;25.20;;;21.00;;
56997;SDS011;42890;44.244;22.530;2024-03-02T08:45:47;25.33;;;22.38;;
56997;SDS011;42890;44.244;22.530;2024-03-02T08:48:14;26.63;;;23.77;;
56997;SDS011;42890;44.244;22.530;2024-03-02T08:50:40;22.65;;;20.27;;
56997;SDS011;42890;44.244;22.530;2024-03-02T08:53:06;23.08;;;20.70;;
56997;SDS011;42890;44.244;22.530;2024-03-02T08:55:32;25.40;;;20.27;;
56997;SDS011;42890;44.244;22.530;2024-03-02T08:57:58;18.73;;;16.77;;
56997;SDS011;42890;44.244;22.530;2024-03-02T09:00:25;20.98;;;17.92;;
56997;SDS011;42890;44.244;22.530;2024-03-02T09:02:51;22.73;;;18.25;;
56997;SDS011;42890;44.244;22.530;2024-03-02T09:05:17;22.33;;;16.60;;
56997;SDS011;42890;44.244;22.530;2024-03-02T09:07:43;24.83;;;17.73;;
56997;SDS011;42890;44.244;22.530;2024-03-02T09:10:09;18.67;;;13.63;;
56997;SDS011;42890;44.244;22.530;2024-03-02T09:12:35;14.50;;;12.10;;
56997;SDS011;42890;44.244;22.530;2024-03-02T09:15:01;16.20;;;12.82;;
56997;SDS011;42890;44.244;22.530;2024-03-02T09:17:28;14.43;;;12.15;;
56997;SDS011;42890;44.244;22.530;2024-03-02T09:19:54;14.93;;;11.65;;
56997;SDS011;42890;44.244;22.530;2024-03-02T09:22:21;15.05;;;11.85;;
56997;SDS011;42890;44.244;22.530;2024-03-02T09:24:48;13.70;;;11.85;;
56997;SDS011;42890;44.244;22.530;2024-03-02T09:27:14;13.93;;;11.18;;
56997;SDS011;42890;44.244;22.530;2024-03-02T09:29:40;12.57;;;10.63;;
56997;SDS011;42890;44.244;22.530;2024-03-02T09:32:07;14.52;;;10.68;;
56997;SDS011;42890;44.244;22.530;2024-03-02T09:34:33;11.48;;;10.27;;
56997;SDS011;42890;44.244;22.530;2024-03-02T09:36:59;15.98;;;12.13;;
56997;SDS011;42890;44.244;22.530;2024-03-02T09:39:25;14.57;;;11.55;;
56997;SDS011;42890;44.244;22.530;2024-03-02T09:41:51;16.90;;;14.40;;
56997;SDS011;42890;44.244;22.530;2024-03-02T09:44:18;16.02;;;11.35;;
56997;SDS011;42890;44.244;22.530;2024-03-02T09:46:48;21.40;;;19.00;;
56997;SDS011;42890;44.244;22.530;2024-03-02T09:49:14;15.60;;;11.80;;
56997;SDS011;42890;44.244;22.530;2024-03-02T09:51:41;14.50;;;13.00;;
56997;SDS011;42890;44.244;22.530;2024-03-02T09:54:11;17.45;;;12.68;;
56997;SDS011;42890;44.244;22.530;2024-03-02T09:56:38;13.73;;;11.90;;
56997;SDS011;42890;44.244;22.530;2024-03-02T09:59:04;16.30;;;12.00;;
56997;SDS011;42890;44.244;22.530;2024-03-02T10:01:30;16.33;;;13.80;;
56997;SDS011;42890;44.244;22.530;2024-03-02T10:03:59;13.15;;;11.85;;
56997;SDS011;42890;44.244;22.530;2024-03-02T10:06:26;13.27;;;11.30;;
56997;SDS011;42890;44.244;22.530;2024-03-02T10:08:53;14.82;;;12.68;;
56997;SDS011;42890;44.244;22.530;2024-03-02T10:11:26;15.45;;;13.85;;
56997;SDS011;42890;44.244;22.530;2024-03-02T10:16:38;15.60;;;13.55;;
56997;SDS011;42890;44.244;22.530;2024-03-02T10:19:23;14.40;;;13.02;;
56997;SDS011;42890;44.244;22.530;2024-03-02T10:21:52;17.63;;;13.50;;
56997;SDS011;42890;44.244;22.530;2024-03-02T10:24:18;14.50;;;13.13;;
56997;SDS011;42890;44.244;22.530;2024-03-02T10:26:45;16.67;;;13.77;;
56997;SDS011;42890;44.244;22.530;2024-03-02T10:29:11;15.35;;;12.50;;
56997;SDS011;42890;44.244;22.530;2024-03-02T10:31:38;14.15;;;12.40;;
56997;SDS011;42890;44.244;22.530;2024-03-02T10:34:05;15.02;;;12.95;;
56997;SDS011;42890;44.244;22.530;2024-03-02T10:36:32;18.75;;;13.02;;
56997;SDS011;42890;44.244;22.530;2024-03-02T10:39:01;15.27;;;13.52;;
56997;SDS011;42890;44.244;22.530;2024-03-02T10:41:29;15.93;;;14.23;;
56997;SDS011;42890;44.244;22.530;2024-03-02T10:43:57;16.25;;;14.52;;
56997;SDS011;42890;44.244;22.530;2024-03-02T10:46:28;16.00;;;13.43;;
56997;SDS011;42890;44.244;22.530;2024-03-02T10:48:55;15.48;;;13.88;;
56997;SDS011;42890;44.244;22.530;2024-03-02T10:51:21;19.90;;;15.20;;
56997;SDS011;42890;44.244;22.530;2024-03-02T10:53:47;18.60;;;13.45;;
56997;SDS011;42890;44.244;22.530;2024-03-02T10:56:15;15.80;;;13.00;;
56997;SDS011;42890;44.244;22.530;2024-03-02T10:58:43;15.30;;;11.88;;
56997;SDS011;42890;44.244;22.530;2024-03-02T11:01:10;14.85;;;12.27;;
56997;SDS011;42890;44.244;22.530;2024-03-02T11:03:36;15.02;;;12.43;;
56997;SDS011;42890;44.244;22.530;2024-03-02T11:06:03;15.38;;;12.02;;
56997;SDS011;42890;44.244;22.530;2024-03-02T11:08:33;17.92;;;13.00;;
56997;SDS011;42890;44.244;22.530;2024-03-02T11:11:06;17.85;;;13.50;;
56997;SDS011;42890;44.244;22.530;2024-03-02T11:13:33;16.00;;;14.18;;
56997;SDS011;42890;44.244;22.530;2024-03-02T11:16:08;14.70;;;13.02;;
56997;SDS011;42890;44.244;22.530;2024-03-02T11:18:35;19.55;;;14.02;;
56997;SDS011;42890;44.244;22.530;2024-03-02T11:21:02;16.02;;;13.38;;
56997;SDS011;42890;44.244;22.530;2024-03-02T11:23:32;16.10;;;13.57;;
56997;SDS011;42890;44.244;22.530;2024-03-02T11:26:17;21.33;;;14.15;;
56997;SDS011;42890;44.244;22.530;2024-03-02T11:28:44;14.32;;;12.93;;
56997;SDS011;42890;44.244;22.530;2024-03-02T11:31:10;19.50;;;13.93;;
56997;SDS011;42890;44.244;22.530;2024-03-02T11:33:37;16.00;;;12.25;;
56997;SDS011;42890;44.244;22.530;2024-03-02T11:36:03;13.07;;;11.30;;
56997;SDS011;42890;44.244;22.530;2024-03-02T11:38:32;14.60;;;13.15;;
56997;SDS011;42890;44.244;22.530;2024-03-02T11:41:02;14.75;;;12.27;;
56997;SDS011;42890;44.244;22.530;2024-03-02T11:43:33;16.17;;;12.43;;
56997;SDS011;42890;44.244;22.530;2024-03-02T11:46:04;17.77;;;13.35;;
56997;SDS011;42890;44.244;22.530;2024-03-02T11:48:34;17.63;;;13.38;;
56997;SDS011;42890;44.244;22.530;2024-03-02T11:51:01;16.23;;;13.25;;
56997;SDS011;42890;44.244;22.530;2024-03-02T11:53:28;14.60;;;11.75;;
56997;SDS011;42890;44.244;22.530;2024-03-02T11:55:56;14.25;;;12.27;;
56997;SDS011;42890;44.244;22.530;2024-03-02T11:58:23;18.33;;;13.52;;
56997;SDS011;42890;44.244;22.530;2024-03-02T12:00:51;15.70;;;13.50;;
56997;SDS011;42890;44.244;22.530;2024-03-02T12:03:18;16.25;;;12.82;;
56997;SDS011;42890;44.244;22.530;2024-03-02T12:05:48;13.73;;;12.27;;
56997;SDS011;42890;44.244;22.530;2024-03-02T12:08:14;18.10;;;12.43;;
56997;SDS011;42890;44.244;22.530;2024-03-02T12:10:40;15.30;;;11.80;;
56997;SDS011;42890;44.244;22.530;2024-03-02T12:13:07;15.70;;;12.20;;
56997;SDS011;42890;44.244;22.530;2024-03-02T12:15:36;15.20;;;13.18;;
56997;SDS011;42890;44.244;22.530;2024-03-02T12:18:05;13.00;;;11.50;;
56997;SDS011;42890;44.244;22.530;2024-03-02T12:20:32;13.38;;;11.95;;
56997;SDS011;42890;44.244;22.530;2024-03-02T12:22:59;13.95;;;12.55;;
56997;SDS011;42890;44.244;22.530;2024-03-02T12:25:26;17.55;;;12.52;;
56997;SDS011;42890;44.244;22.530;2024-03-02T12:27:53;16.45;;;14.02;;
56997;SDS011;42890;44.244;22.530;2024-03-02T12:30:20;17.98;;;13.45;;
56997;SDS011;42890;44.244;22.530;2024-03-02T12:32:46;15.85;;;13.48;;
56997;SDS011;42890;44.244;22.530;2024-03-02T12:35:13;15.32;;;13.43;;
56997;SDS011;42890;44.244;22.530;2024-03-02T12:37:46;18.48;;;14.02;;
56997;SDS011;42890;44.244;22.530;2024-03-02T12:40:13;17.10;;;14.15;;
56997;SDS011;42890;44.244;22.530;2024-03-02T12:42:40;15.40;;;13.80;;
56997;SDS011;42890;44.244;22.530;2024-03-02T12:45:11;17.40;;;14.43;;
56997;SDS011;42890;44.244;22.530;2024-03-02T12:47:37;16.50;;;13.85;;
56997;SDS011;42890;44.244;22.530;2024-03-02T12:50:05;16.00;;;13.43;;
56997;SDS011;42890;44.244;22.530;2024-03-02T12:52:31;17.30;;;14.48;;
56997;SDS011;42890;44.244;22.530;2024-03-02T12:55:00;16.55;;;14.65;;
56997;SDS011;42890;44.244;22.530;2024-03-02T12:57:28;17.08;;;15.18;;
56997;SDS011;42890;44.244;22.530;2024-03-02T13:00:12;16.40;;;14.68;;
56997;SDS011;42890;44.244;22.530;2024-03-02T13:02:40;21.70;;;14.82;;
56997;SDS011;42890;44.244;22.530;2024-03-02T13:05:09;23.55;;;15.63;;
56997;SDS011;42890;44.244;22.530;2024-03-02T13:07:38;18.13;;;16.23;;
56997;SDS011;42890;44.244;22.530;2024-03-02T13:10:06;18.17;;;16.42;;
56997;SDS011;42890;44.244;22.530;2024-03-02T13:12:35;19.42;;;15.93;;
56997;SDS011;42890;44.244;22.530;2024-03-02T13:15:02;17.92;;;14.93;;
56997;SDS011;42890;44.244;22.530;2024-03-02T13:17:29;20.27;;;15.95;;
56997;SDS011;42890;44.244;22.530;2024-03-02T13:19:55;19.73;;;15.98;;
56997;SDS011;42890;44.244;22.530;2024-03-02T13:22:22;16.85;;;15.15;;
56997;SDS011;42890;44.244;22.530;2024-03-02T13:24:51;19.55;;;15.52;;
56997;SDS011;42890;44.244;22.530;2024-03-02T13:27:19;18.77;;;15.85;;
56997;SDS011;42890;44.244;22.530;2024-03-02T13:29:46;18.90;;;16.15;;
56997;SDS011;42890;44.244;22.530;2024-03-02T13:32:13;20.17;;;14.45;;
56997;SDS011;42890;44.244;22.530;2024-03-02T13:34:39;18.27;;;15.00;;
56997;SDS011;42890;44.244;22.530;2024-03-02T13:37:05;16.40;;;14.50;;
56997;SDS011;42890;44.244;22.530;2024-03-02T13:39:31;17.38;;;14.20;;
56997;SDS011;42890;44.244;22.530;2024-03-02T13:42:00;17.85;;;14.07;;
56997;SDS011;42890;44.244;22.530;2024-03-02T13:44:32;17.20;;;13.27;;
56997;SDS011;42890;44.244;22.530;2024-03-02T13:46:59;16.55;;;14.23;;
56997;SDS011;42890;44.244;22.530;2024-03-02T13:49:25;15.52;;;13.18;;
56997;SDS011;42890;44.244;22.530;2024-03-02T13:51:59;15.60;;;13.93;;
56997;SDS011;42890;44.244;22.530;2024-03-02T13:54:27;16.55;;;13.82;;
56997;SDS011;42890;44.244;22.530;2024-03-02T13:56:54;17.15;;;13.73;;
56997;SDS011;42890;44.244;22.530;2024-03-02T13:59:20;16.10;;;13.15;;
56997;SDS011;42890;44.244;22.530;2024-03-02T14:01:47;18.67;;;14.07;;
56997;SDS011;42890;44.244;22.530;2024-03-02T14:04:14;20.10;;;13.75;;
56997;SDS011;42890;44.244;22.530;2024-03-02T14:06:40;15.90;;;14.27;;
56997;SDS011;42890;44.244;22.530;2024-03-02T14:09:08;18.00;;;13.85;;
56997;SDS011;42890;44.244;22.530;2024-03-02T14:11:34;18.10;;;12.82;;
56997;SDS011;42890;44.244;22.530;2024-03-02T14:14:00;14.15;;;12.55;;
56997;SDS011;42890;44.244;22.530;2024-03-02T14:16:27;15.32;;;12.95;;